الصفحة الرئيسية
METAR-TAF:

METAR-TAF

مطار :

دوبروفنيك, كرواتيا

دائرة عرض: 42-34N, خط طول: 018-16E, ارتفاع: 157 متر

مراقبة الطقس الحالي

تاريخ ووقت الإصدار 36 دقيقة قبل الساعة 10:00UTC
ريح 5 عقدة من الغرب/الشمال الغربي, الاتجاه يتراوح بين الغرب و الشمال/الشمال الغربي
درجة الحرارة 15°درجة مئوية
الرطوبة 59%
ضغط 1023 hPa
الرؤية 10 كم أو أكثر
الغيوم لا تقل 1500 م ولا وجود لمزنة ركامية السحاب الأسود

METAR: LDDU 251000Z 30005KT 260V330 CAVOK 15/07 Q1023 NOSIG

زمن: 11:36 (10:36 UTC)

توقعات

تاريخ ووقت الإصدار 5ساعات و 11 دقيقة قبل الساعة 05:25UTC
التوقعات صالحة من25 الساعة 06 UTC إلى 26 الساعة 06 UTC
ريح 2 عقدةمن اتجاهات متغيرة
الرؤية 10 كم أو أكثر
الغيوم لا تقل 1500 م ولا وجود لمزنة ركامية السحاب الأسود
أصبح
من 25 الساعة 10 UTC إلى 25 الساعة 12 UTC
ريح 8 عقدة من الغرب/الشمال الغربي
أصبح
من 25 الساعة 16 UTC إلى 25 الساعة 18 UTC
ريح 10 عقدة من الشمال/الشمال الشرقي

TAF: LDDU 250525Z 2506/2606 VRB02KT CAVOK TX16/2512Z TN08/2604Z BECMG 2510/2512 29008KT BECMG 2516/2518 02010KT

أرصاد الطقس والتوقعات من أكثر من 4000 مطار (تقارير الطقس للمطار METAR والتنبؤ بالطقس بالمطارTAF).

المحطات المتاحة هي النقط الصفراء والحمراء على الخريطة.

حرك المؤشر فوق النقطة لمعرفة اسم المحطة.

ثم انقر لمعرفة أرصاد وتوقعات الطقس.

لتغيير الخارطة: اضغط على الأزرار الخضراء مع رمز الصليب الأسود للتكبير. على الزر الأخضر مع شرطة للتصغير، أو على الأسهم الخضراء للخرائط المجاورة.


METAR-TAF: